24h
KLIENDITUGI:
Saartelennuliinid: +372 58856336 (24/7)
Estairi piletikassa lennujaamas:
+372 6058887; +372 55603687

31.10.2018 hommikune Transaviabaltika lend KTB670 Tallinn - Kärdla ja KTB671 Kärdla – Tallinn väljalend jääb ära. Lennu ära jäämise põhjustab ilmastikuolu Kärdla lennuväljal. Reisijatele võimaldatakse tasuta lennupileti ümberbroneerimine reisija soovi kohasele mõnele teisele Tallinn-Kärdla või Kärdla-Tallinn lennule. Reisijatele kes ei soovi lennupileti ümberbroneerimist teisele lennule tagastatakse piletiraha. Oma soovist tuleb teada anda e-mailile [email protected] Lisainformatsioon telefonil 58856336.

EEKA Kärdla lennuväli FCEO32 EETN 310400

TAF EEKA 310400Z 3105/3111 15016KT 7000 OVC004 PROB40

TEMPO 3105/3108 3000 BR BKN003 BKN010 SCT016CB BECMG 3108/3110 21015KT BKN005 BKN012=

METAR EEKA 310350Z 13017KT 6000 OVC003 07/07 Q1013=
Kuupäev: 
31/10/2018